sensor_id;sensor_type;location;lat;lon;timestamp;temperature;humidity
21830;DHT22;11077;50.264;6.798;2022-11-21T00:00:31;4.50;99.90
21830;DHT22;11077;50.264;6.798;2022-11-21T00:02:59;4.50;99.90
21830;DHT22;11077;50.264;6.798;2022-11-21T00:05:27;4.50;99.90
21830;DHT22;11077;50.264;6.798;2022-11-21T00:07:57;4.50;99.90
21830;DHT22;11077;50.264;6.798;2022-11-21T00:10:25;4.50;99.90
21830;DHT22;11077;50.264;6.798;2022-11-21T00:12:53;4.50;99.90
21830;DHT22;11077;50.264;6.798;2022-11-21T00:15:22;4.50;99.90
21830;DHT22;11077;50.264;6.798;2022-11-21T00:17:49;4.50;99.90
21830;DHT22;11077;50.264;6.798;2022-11-21T00:20:17;4.50;99.90
21830;DHT22;11077;50.264;6.798;2022-11-21T00:22:45;4.40;99.90
21830;DHT22;11077;50.264;6.798;2022-11-21T00:25:14;4.50;99.90
21830;DHT22;11077;50.264;6.798;2022-11-21T00:27:42;4.50;99.90
21830;DHT22;11077;50.264;6.798;2022-11-21T00:30:10;4.40;99.90
21830;DHT22;11077;50.264;6.798;2022-11-21T00:32:38;4.40;99.90
21830;DHT22;11077;50.264;6.798;2022-11-21T00:35:06;4.40;99.90
21830;DHT22;11077;50.264;6.798;2022-11-21T00:37:34;4.40;99.90
21830;DHT22;11077;50.264;6.798;2022-11-21T00:40:01;4.40;99.90
21830;DHT22;11077;50.264;6.798;2022-11-21T00:42:30;4.40;99.90
21830;DHT22;11077;50.264;6.798;2022-11-21T00:44:57;4.30;99.90
21830;DHT22;11077;50.264;6.798;2022-11-21T00:47:24;4.30;99.90
21830;DHT22;11077;50.264;6.798;2022-11-21T00:49:52;4.20;99.90
21830;DHT22;11077;50.264;6.798;2022-11-21T00:52:19;4.30;99.90
21830;DHT22;11077;50.264;6.798;2022-11-21T00:54:46;4.20;99.90
21830;DHT22;11077;50.264;6.798;2022-11-21T00:57:14;4.20;99.90
21830;DHT22;11077;50.264;6.798;2022-11-21T00:59:43;4.30;99.90
21830;DHT22;11077;50.264;6.798;2022-11-21T01:02:10;4.30;99.90
21830;DHT22;11077;50.264;6.798;2022-11-21T01:04:38;4.30;99.90
21830;DHT22;11077;50.264;6.798;2022-11-21T01:07:05;4.20;99.90
21830;DHT22;11077;50.264;6.798;2022-11-21T01:09:33;4.30;99.90
21830;DHT22;11077;50.264;6.798;2022-11-21T01:12:00;4.20;99.90
21830;DHT22;11077;50.264;6.798;2022-11-21T01:14:27;4.30;99.90
21830;DHT22;11077;50.264;6.798;2022-11-21T01:16:56;4.20;99.90
21830;DHT22;11077;50.264;6.798;2022-11-21T01:19:23;4.20;99.90
21830;DHT22;11077;50.264;6.798;2022-11-21T01:21:50;4.20;99.90
21830;DHT22;11077;50.264;6.798;2022-11-21T01:24:18;4.10;99.90
21830;DHT22;11077;50.264;6.798;2022-11-21T01:26:45;4.00;99.90
21830;DHT22;11077;50.264;6.798;2022-11-21T01:29:13;4.00;99.90
21830;DHT22;11077;50.264;6.798;2022-11-21T01:31:41;4.00;99.90
21830;DHT22;11077;50.264;6.798;2022-11-21T01:34:09;4.00;99.90
21830;DHT22;11077;50.264;6.798;2022-11-21T01:36:37;4.00;99.90
21830;DHT22;11077;50.264;6.798;2022-11-21T01:39:05;3.90;99.90
21830;DHT22;11077;50.264;6.798;2022-11-21T01:41:34;3.90;99.90
21830;DHT22;11077;50.264;6.798;2022-11-21T01:44:05;3.90;99.90
21830;DHT22;11077;50.264;6.798;2022-11-21T01:46:33;3.90;99.90
21830;DHT22;11077;50.264;6.798;2022-11-21T01:49:03;3.90;99.90
21830;DHT22;11077;50.264;6.798;2022-11-21T01:51:38;3.90;99.90
21830;DHT22;11077;50.264;6.798;2022-11-21T01:54:11;3.90;99.90
21830;DHT22;11077;50.264;6.798;2022-11-21T01:56:43;3.90;99.90
21830;DHT22;11077;50.264;6.798;2022-11-21T01:59:16;3.90;99.90
21830;DHT22;11077;50.264;6.798;2022-11-21T02:01:46;3.90;99.90
21830;DHT22;11077;50.264;6.798;2022-11-21T02:04:14;4.00;99.90
21830;DHT22;11077;50.264;6.798;2022-11-21T02:06:43;4.00;99.90
21830;DHT22;11077;50.264;6.798;2022-11-21T02:09:11;3.90;99.90
21830;DHT22;11077;50.264;6.798;2022-11-21T02:11:41;3.90;99.90
21830;DHT22;11077;50.264;6.798;2022-11-21T02:14:10;4.00;99.90
21830;DHT22;11077;50.264;6.798;2022-11-21T02:16:38;4.00;99.90
21830;DHT22;11077;50.264;6.798;2022-11-21T02:19:07;4.00;99.90
21830;DHT22;11077;50.264;6.798;2022-11-21T02:21:46;4.00;99.90
21830;DHT22;11077;50.264;6.798;2022-11-21T02:24:19;4.00;99.90
21830;DHT22;11077;50.264;6.798;2022-11-21T02:26:50;4.00;99.90
21830;DHT22;11077;50.264;6.798;2022-11-21T02:29:17;4.00;99.90
21830;DHT22;11077;50.264;6.798;2022-11-21T02:31:44;4.00;99.90
21830;DHT22;11077;50.264;6.798;2022-11-21T02:34:12;4.00;99.90
21830;DHT22;11077;50.264;6.798;2022-11-21T02:36:41;4.10;99.90
21830;DHT22;11077;50.264;6.798;2022-11-21T02:39:13;4.10;99.90
21830;DHT22;11077;50.264;6.798;2022-11-21T02:41:47;4.10;99.90
21830;DHT22;11077;50.264;6.798;2022-11-21T02:44:23;4.10;99.90
21830;DHT22;11077;50.264;6.798;2022-11-21T02:46:51;4.10;99.90
21830;DHT22;11077;50.264;6.798;2022-11-21T02:52:07;4.10;99.90
21830;DHT22;11077;50.264;6.798;2022-11-21T02:54:34;4.10;99.90
21830;DHT22;11077;50.264;6.798;2022-11-21T02:57:02;4.10;99.90
21830;DHT22;11077;50.264;6.798;2022-11-21T02:59:30;4.00;99.90
21830;DHT22;11077;50.264;6.798;2022-11-21T03:01:58;4.00;99.90
21830;DHT22;11077;50.264;6.798;2022-11-21T03:04:26;4.10;99.90
21830;DHT22;11077;50.264;6.798;2022-11-21T03:06:53;4.00;99.90
21830;DHT22;11077;50.264;6.798;2022-11-21T03:09:20;4.00;99.90
21830;DHT22;11077;50.264;6.798;2022-11-21T03:11:48;4.00;99.90
21830;DHT22;11077;50.264;6.798;2022-11-21T03:14:15;4.00;99.90
21830;DHT22;11077;50.264;6.798;2022-11-21T03:16:44;4.00;99.90
21830;DHT22;11077;50.264;6.798;2022-11-21T03:19:11;4.00;99.90
21830;DHT22;11077;50.264;6.798;2022-11-21T03:21:38;4.00;99.90
21830;DHT22;11077;50.264;6.798;2022-11-21T03:24:06;4.00;99.90
21830;DHT22;11077;50.264;6.798;2022-11-21T03:26:34;4.00;99.90
21830;DHT22;11077;50.264;6.798;2022-11-21T03:29:01;4.00;99.90
21830;DHT22;11077;50.264;6.798;2022-11-21T03:31:28;4.00;99.90
21830;DHT22;11077;50.264;6.798;2022-11-21T03:33:57;4.00;99.90
21830;DHT22;11077;50.264;6.798;2022-11-21T03:36:25;4.00;99.90
21830;DHT22;11077;50.264;6.798;2022-11-21T03:38:54;3.90;99.90
21830;DHT22;11077;50.264;6.798;2022-11-21T03:41:21;4.00;99.90
21830;DHT22;11077;50.264;6.798;2022-11-21T03:43:59;4.00;99.90
21830;DHT22;11077;50.264;6.798;2022-11-21T03:46:27;4.00;99.90
21830;DHT22;11077;50.264;6.798;2022-11-21T03:48:54;4.00;99.90
21830;DHT22;11077;50.264;6.798;2022-11-21T03:51:23;4.00;99.90
21830;DHT22;11077;50.264;6.798;2022-11-21T03:53:50;4.00;99.90
21830;DHT22;11077;50.264;6.798;2022-11-21T03:56:18;4.00;99.90
21830;DHT22;11077;50.264;6.798;2022-11-21T03:58:45;4.00;99.90
21830;DHT22;11077;50.264;6.798;2022-11-21T04:01:13;4.00;99.90
21830;DHT22;11077;50.264;6.798;2022-11-21T04:03:41;4.00;99.90
21830;DHT22;11077;50.264;6.798;2022-11-21T04:06:09;4.00;99.90
21830;DHT22;11077;50.264;6.798;2022-11-21T04:08:39;4.00;99.90
21830;DHT22;11077;50.264;6.798;2022-11-21T04:11:06;3.90;99.90
21830;DHT22;11077;50.264;6.798;2022-11-21T04:13:34;3.90;99.90
21830;DHT22;11077;50.264;6.798;2022-11-21T04:16:02;3.90;99.90
21830;DHT22;11077;50.264;6.798;2022-11-21T04:18:29;3.90;99.90
21830;DHT22;11077;50.264;6.798;2022-11-21T04:20:57;3.90;99.90
21830;DHT22;11077;50.264;6.798;2022-11-21T04:23:25;4.00;99.90
21830;DHT22;11077;50.264;6.798;2022-11-21T04:25:54;4.00;99.90
21830;DHT22;11077;50.264;6.798;2022-11-21T04:28:21;4.00;99.90
21830;DHT22;11077;50.264;6.798;2022-11-21T04:30:49;4.00;99.90
21830;DHT22;11077;50.264;6.798;2022-11-21T04:33:17;4.00;99.90
21830;DHT22;11077;50.264;6.798;2022-11-21T04:35:45;4.00;99.90
21830;DHT22;11077;50.264;6.798;2022-11-21T04:38:13;4.00;99.90
21830;DHT22;11077;50.264;6.798;2022-11-21T04:40:42;4.00;99.90
21830;DHT22;11077;50.264;6.798;2022-11-21T04:43:12;4.00;99.90
21830;DHT22;11077;50.264;6.798;2022-11-21T04:45:39;4.00;99.90
21830;DHT22;11077;50.264;6.798;2022-11-21T04:48:06;4.10;99.90
21830;DHT22;11077;50.264;6.798;2022-11-21T04:50:33;4.10;99.90
21830;DHT22;11077;50.264;6.798;2022-11-21T04:53:01;4.10;99.90
21830;DHT22;11077;50.264;6.798;2022-11-21T04:55:29;4.10;99.90
21830;DHT22;11077;50.264;6.798;2022-11-21T04:57:57;4.10;99.90
21830;DHT22;11077;50.264;6.798;2022-11-21T05:00:26;4.10;99.90
21830;DHT22;11077;50.264;6.798;2022-11-21T05:02:54;4.10;99.90
21830;DHT22;11077;50.264;6.798;2022-11-21T05:05:21;4.10;99.90
21830;DHT22;11077;50.264;6.798;2022-11-21T05:07:48;4.10;99.90
21830;DHT22;11077;50.264;6.798;2022-11-21T05:10:15;4.10;99.90
21830;DHT22;11077;50.264;6.798;2022-11-21T05:12:46;4.10;99.90
21830;DHT22;11077;50.264;6.798;2022-11-21T05:15:34;4.10;99.90
21830;DHT22;11077;50.264;6.798;2022-11-21T05:18:01;4.10;99.90
21830;DHT22;11077;50.264;6.798;2022-11-21T05:20:28;4.10;99.90
21830;DHT22;11077;50.264;6.798;2022-11-21T05:22:56;4.10;99.90
21830;DHT22;11077;50.264;6.798;2022-11-21T05:25:23;4.00;99.90
21830;DHT22;11077;50.264;6.798;2022-11-21T05:27:50;4.00;99.90
21830;DHT22;11077;50.264;6.798;2022-11-21T05:30:18;4.00;99.90
21830;DHT22;11077;50.264;6.798;2022-11-21T05:32:46;4.00;99.90
21830;DHT22;11077;50.264;6.798;2022-11-21T05:35:14;4.00;99.90
21830;DHT22;11077;50.264;6.798;2022-11-21T05:37:41;4.00;99.90
21830;DHT22;11077;50.264;6.798;2022-11-21T05:40:09;4.00;99.90
21830;DHT22;11077;50.264;6.798;2022-11-21T05:42:38;3.90;99.90
21830;DHT22;11077;50.264;6.798;2022-11-21T05:45:23;4.00;99.90
21830;DHT22;11077;50.264;6.798;2022-11-21T05:47:52;4.00;99.90
21830;DHT22;11077;50.264;6.798;2022-11-21T05:50:19;4.00;99.90
21830;DHT22;11077;50.264;6.798;2022-11-21T05:52:46;4.00;99.90
21830;DHT22;11077;50.264;6.798;2022-11-21T05:55:14;4.00;99.90
21830;DHT22;11077;50.264;6.798;2022-11-21T05:57:41;4.00;99.90
21830;DHT22;11077;50.264;6.798;2022-11-21T06:00:09;4.00;99.90
21830;DHT22;11077;50.264;6.798;2022-11-21T06:02:36;4.00;99.90
21830;DHT22;11077;50.264;6.798;2022-11-21T06:05:22;4.00;99.90
21830;DHT22;11077;50.264;6.798;2022-11-21T06:07:49;4.00;99.90
21830;DHT22;11077;50.264;6.798;2022-11-21T06:10:17;3.90;99.90
21830;DHT22;11077;50.264;6.798;2022-11-21T06:12:44;4.00;99.90
21830;DHT22;11077;50.264;6.798;2022-11-21T06:15:11;3.90;99.90
21830;DHT22;11077;50.264;6.798;2022-11-21T06:17:38;3.90;99.90
21830;DHT22;11077;50.264;6.798;2022-11-21T06:20:07;3.90;99.90
21830;DHT22;11077;50.264;6.798;2022-11-21T06:22:36;3.90;99.90
21830;DHT22;11077;50.264;6.798;2022-11-21T06:25:03;3.90;99.90
21830;DHT22;11077;50.264;6.798;2022-11-21T06:27:31;3.90;99.90
21830;DHT22;11077;50.264;6.798;2022-11-21T06:29:58;3.90;99.90
21830;DHT22;11077;50.264;6.798;2022-11-21T06:32:25;3.90;99.90
21830;DHT22;11077;50.264;6.798;2022-11-21T06:34:53;3.90;99.90
21830;DHT22;11077;50.264;6.798;2022-11-21T06:37:20;3.90;99.90
21830;DHT22;11077;50.264;6.798;2022-11-21T06:39:49;3.90;99.90
21830;DHT22;11077;50.264;6.798;2022-11-21T06:42:16;3.80;99.90
21830;DHT22;11077;50.264;6.798;2022-11-21T06:44:43;3.80;99.90
21830;DHT22;11077;50.264;6.798;2022-11-21T06:47:11;3.90;99.90
21830;DHT22;11077;50.264;6.798;2022-11-21T06:49:38;3.90;99.90
21830;DHT22;11077;50.264;6.798;2022-11-21T06:52:05;3.90;99.90
21830;DHT22;11077;50.264;6.798;2022-11-21T06:54:32;3.90;99.90
21830;DHT22;11077;50.264;6.798;2022-11-21T06:57:01;3.90;99.90
21830;DHT22;11077;50.264;6.798;2022-11-21T06:59:28;3.90;99.90
21830;DHT22;11077;50.264;6.798;2022-11-21T07:01:56;3.90;99.90
21830;DHT22;11077;50.264;6.798;2022-11-21T07:04:23;3.90;99.90
21830;DHT22;11077;50.264;6.798;2022-11-21T07:06:50;3.90;99.90
21830;DHT22;11077;50.264;6.798;2022-11-21T07:09:18;3.80;99.90
21830;DHT22;11077;50.264;6.798;2022-11-21T07:11:45;3.80;99.90
21830;DHT22;11077;50.264;6.798;2022-11-21T07:14:14;3.80;99.90
21830;DHT22;11077;50.264;6.798;2022-11-21T07:16:40;3.90;99.90
21830;DHT22;11077;50.264;6.798;2022-11-21T07:19:07;3.80;99.90
21830;DHT22;11077;50.264;6.798;2022-11-21T07:21:35;3.80;99.90
21830;DHT22;11077;50.264;6.798;2022-11-21T07:24:02;3.80;99.90
21830;DHT22;11077;50.264;6.798;2022-11-21T07:26:30;3.80;99.90
21830;DHT22;11077;50.264;6.798;2022-11-21T07:28:58;3.80;99.90
21830;DHT22;11077;50.264;6.798;2022-11-21T07:31:27;3.80;99.90
21830;DHT22;11077;50.264;6.798;2022-11-21T07:33:54;3.80;99.90
21830;DHT22;11077;50.264;6.798;2022-11-21T07:36:21;3.80;99.90
21830;DHT22;11077;50.264;6.798;2022-11-21T07:38:49;3.90;99.90
21830;DHT22;11077;50.264;6.798;2022-11-21T07:41:16;3.80;99.90
21830;DHT22;11077;50.264;6.798;2022-11-21T07:43:44;3.90;99.90
21830;DHT22;11077;50.264;6.798;2022-11-21T07:46:11;3.90;99.90
21830;DHT22;11077;50.264;6.798;2022-11-21T07:48:40;3.90;99.90
21830;DHT22;11077;50.264;6.798;2022-11-21T07:51:07;3.90;99.90
21830;DHT22;11077;50.264;6.798;2022-11-21T07:53:35;3.90;99.90
21830;DHT22;11077;50.264;6.798;2022-11-21T07:56:04;3.80;99.90
21830;DHT22;11077;50.264;6.798;2022-11-21T07:58:37;3.90;99.90
21830;DHT22;11077;50.264;6.798;2022-11-21T08:01:07;3.90;99.90
21830;DHT22;11077;50.264;6.798;2022-11-21T08:03:39;3.90;99.90
21830;DHT22;11077;50.264;6.798;2022-11-21T08:06:12;4.00;99.90
21830;DHT22;11077;50.264;6.798;2022-11-21T08:08:44;4.00;99.90
21830;DHT22;11077;50.264;6.798;2022-11-21T08:11:16;4.00;99.90
21830;DHT22;11077;50.264;6.798;2022-11-21T08:13:47;4.00;99.90
21830;DHT22;11077;50.264;6.798;2022-11-21T08:16:18;4.00;99.90
21830;DHT22;11077;50.264;6.798;2022-11-21T08:18:57;4.00;99.90
21830;DHT22;11077;50.264;6.798;2022-11-21T08:21:29;4.00;99.90
21830;DHT22;11077;50.264;6.798;2022-11-21T08:23:59;4.00;99.90
21830;DHT22;11077;50.264;6.798;2022-11-21T08:26:30;4.00;99.90
21830;DHT22;11077;50.264;6.798;2022-11-21T08:29:03;4.00;99.90
21830;DHT22;11077;50.264;6.798;2022-11-21T08:31:35;4.00;99.90
21830;DHT22;11077;50.264;6.798;2022-11-21T08:34:12;4.00;99.90
21830;DHT22;11077;50.264;6.798;2022-11-21T08:36:45;4.00;99.90
21830;DHT22;11077;50.264;6.798;2022-11-21T08:39:19;4.10;99.90
21830;DHT22;11077;50.264;6.798;2022-11-21T08:41:48;4.10;99.90
21830;DHT22;11077;50.264;6.798;2022-11-21T08:44:35;4.10;99.90
21830;DHT22;11077;50.264;6.798;2022-11-21T08:47:02;4.10;99.90
21830;DHT22;11077;50.264;6.798;2022-11-21T08:49:32;4.10;99.90
21830;DHT22;11077;50.264;6.798;2022-11-21T08:52:00;4.10;99.90
21830;DHT22;11077;50.264;6.798;2022-11-21T08:54:27;4.10;99.90
21830;DHT22;11077;50.264;6.798;2022-11-21T08:56:54;4.10;99.90
21830;DHT22;11077;50.264;6.798;2022-11-21T08:59:22;4.20;99.90
21830;DHT22;11077;50.264;6.798;2022-11-21T09:01:49;4.10;99.90
21830;DHT22;11077;50.264;6.798;2022-11-21T09:04:17;4.10;99.90
21830;DHT22;11077;50.264;6.798;2022-11-21T09:06:46;4.10;99.90
21830;DHT22;11077;50.264;6.798;2022-11-21T09:09:13;4.10;99.90
21830;DHT22;11077;50.264;6.798;2022-11-21T09:11:40;4.10;99.90
21830;DHT22;11077;50.264;6.798;2022-11-21T09:14:08;4.10;99.90
21830;DHT22;11077;50.264;6.798;2022-11-21T09:16:53;4.10;99.90
21830;DHT22;11077;50.264;6.798;2022-11-21T09:19:37;4.10;99.90
21830;DHT22;11077;50.264;6.798;2022-11-21T09:22:06;4.20;99.90
21830;DHT22;11077;50.264;6.798;2022-11-21T09:24:34;4.30;99.90
21830;DHT22;11077;50.264;6.798;2022-11-21T09:27:01;4.30;99.90
21830;DHT22;11077;50.264;6.798;2022-11-21T09:29:29;4.30;99.90
21830;DHT22;11077;50.264;6.798;2022-11-21T09:31:56;4.40;99.90
21830;DHT22;11077;50.264;6.798;2022-11-21T09:34:23;4.40;99.90
21830;DHT22;11077;50.264;6.798;2022-11-21T09:36:51;4.50;99.90
21830;DHT22;11077;50.264;6.798;2022-11-21T09:39:21;4.50;99.90
21830;DHT22;11077;50.264;6.798;2022-11-21T09:41:57;4.40;99.90
21830;DHT22;11077;50.264;6.798;2022-11-21T09:47:21;4.50;99.90
21830;DHT22;11077;50.264;6.798;2022-11-21T09:49:54;4.60;99.90
21830;DHT22;11077;50.264;6.798;2022-11-21T09:52:36;4.70;99.90
21830;DHT22;11077;50.264;6.798;2022-11-21T09:55:13;4.70;99.90
21830;DHT22;11077;50.264;6.798;2022-11-21T09:57:44;4.80;99.90
21830;DHT22;11077;50.264;6.798;2022-11-21T10:00:15;4.80;99.90
21830;DHT22;11077;50.264;6.798;2022-11-21T10:02:45;4.80;99.90
21830;DHT22;11077;50.264;6.798;2022-11-21T10:05:13;4.80;99.90
21830;DHT22;11077;50.264;6.798;2022-11-21T10:07:41;4.90;99.90
21830;DHT22;11077;50.264;6.798;2022-11-21T10:10:21;4.90;99.90
21830;DHT22;11077;50.264;6.798;2022-11-21T10:13:05;4.90;99.90
21830;DHT22;11077;50.264;6.798;2022-11-21T10:15:47;4.90;99.90
21830;DHT22;11077;50.264;6.798;2022-11-21T10:18:26;4.90;99.90
21830;DHT22;11077;50.264;6.798;2022-11-21T10:21:02;4.90;99.90
21830;DHT22;11077;50.264;6.798;2022-11-21T10:23:58;5.00;99.90
21830;DHT22;11077;50.264;6.798;2022-11-21T10:26:38;5.00;99.90
21830;DHT22;11077;50.264;6.798;2022-11-21T10:29:13;5.00;99.90
21830;DHT22;11077;50.264;6.798;2022-11-21T10:31:42;5.00;99.90
21830;DHT22;11077;50.264;6.798;2022-11-21T10:34:12;4.90;99.90
21830;DHT22;11077;50.264;6.798;2022-11-21T10:36:44;5.00;99.90
21830;DHT22;11077;50.264;6.798;2022-11-21T10:39:17;5.10;99.90
21830;DHT22;11077;50.264;6.798;2022-11-21T10:41:52;5.20;99.90
21830;DHT22;11077;50.264;6.798;2022-11-21T10:44:25;5.20;99.90
21830;DHT22;11077;50.264;6.798;2022-11-21T10:47:15;5.30;99.90
21830;DHT22;11077;50.264;6.798;2022-11-21T10:49:56;5.40;99.90
21830;DHT22;11077;50.264;6.798;2022-11-21T10:52:26;5.40;99.90
21830;DHT22;11077;50.264;6.798;2022-11-21T10:55:07;5.40;99.90
21830;DHT22;11077;50.264;6.798;2022-11-21T10:57:43;5.40;99.90
21830;DHT22;11077;50.264;6.798;2022-11-21T11:00:20;5.30;99.90
21830;DHT22;11077;50.264;6.798;2022-11-21T11:03:05;5.40;99.90
21830;DHT22;11077;50.264;6.798;2022-11-21T11:05:34;5.40;99.90
21830;DHT22;11077;50.264;6.798;2022-11-21T11:08:05;5.40;99.90
21830;DHT22;11077;50.264;6.798;2022-11-21T11:10:34;5.40;99.90
21830;DHT22;11077;50.264;6.798;2022-11-21T11:13:11;5.40;99.90
21830;DHT22;11077;50.264;6.798;2022-11-21T11:16:03;5.40;99.90
21830;DHT22;11077;50.264;6.798;2022-11-21T11:18:32;5.40;99.90
21830;DHT22;11077;50.264;6.798;2022-11-21T11:21:18;5.40;99.90
21830;DHT22;11077;50.264;6.798;2022-11-21T11:23:47;5.50;99.90
21830;DHT22;11077;50.264;6.798;2022-11-21T11:26:24;5.60;99.90
21830;DHT22;11077;50.264;6.798;2022-11-21T11:29:06;5.60;99.90
21830;DHT22;11077;50.264;6.798;2022-11-21T11:31:39;5.70;99.90
21830;DHT22;11077;50.264;6.798;2022-11-21T11:34:13;5.70;99.90
21830;DHT22;11077;50.264;6.798;2022-11-21T11:36:54;5.60;99.90
21830;DHT22;11077;50.264;6.798;2022-11-21T11:42:40;5.50;99.90
21830;DHT22;11077;50.264;6.798;2022-11-21T11:45:45;5.60;99.90
21830;DHT22;11077;50.264;6.798;2022-11-21T11:48:33;5.60;99.90
21830;DHT22;11077;50.264;6.798;2022-11-21T11:51:08;5.70;99.90
21830;DHT22;11077;50.264;6.798;2022-11-21T11:53:42;5.60;99.90
21830;DHT22;11077;50.264;6.798;2022-11-21T11:56:15;5.70;99.90
21830;DHT22;11077;50.264;6.798;2022-11-21T11:58:45;5.70;99.90
21830;DHT22;11077;50.264;6.798;2022-11-21T12:01:19;5.70;99.90
21830;DHT22;11077;50.264;6.798;2022-11-21T12:03:52;5.70;99.90
21830;DHT22;11077;50.264;6.798;2022-11-21T12:06:24;5.80;99.90
21830;DHT22;11077;50.264;6.798;2022-11-21T12:08:53;5.90;99.90
21830;DHT22;11077;50.264;6.798;2022-11-21T12:11:25;6.00;99.90
21830;DHT22;11077;50.264;6.798;2022-11-21T12:17:25;6.20;99.90
21830;DHT22;11077;50.264;6.798;2022-11-21T12:19:53;6.20;99.90
21830;DHT22;11077;50.264;6.798;2022-11-21T12:22:23;6.10;99.90
21830;DHT22;11077;50.264;6.798;2022-11-21T12:24:51;6.20;99.90
21830;DHT22;11077;50.264;6.798;2022-11-21T12:27:27;6.10;99.90
21830;DHT22;11077;50.264;6.798;2022-11-21T12:30:16;6.10;99.90
21830;DHT22;11077;50.264;6.798;2022-11-21T12:32:54;6.10;99.90
21830;DHT22;11077;50.264;6.798;2022-11-21T12:35:39;6.00;99.90
21830;DHT22;11077;50.264;6.798;2022-11-21T12:38:24;6.10;99.90
21830;DHT22;11077;50.264;6.798;2022-11-21T12:41:04;6.10;99.90
21830;DHT22;11077;50.264;6.798;2022-11-21T12:44:01;6.10;99.90
21830;DHT22;11077;50.264;6.798;2022-11-21T12:46:38;6.20;99.90
21830;DHT22;11077;50.264;6.798;2022-11-21T12:49:14;6.10;99.90
21830;DHT22;11077;50.264;6.798;2022-11-21T12:52:12;6.10;99.90
21830;DHT22;11077;50.264;6.798;2022-11-21T12:55:22;6.00;99.90
21830;DHT22;11077;50.264;6.798;2022-11-21T12:58:04;5.90;99.90
21830;DHT22;11077;50.264;6.798;2022-11-21T13:00:42;5.80;99.90
21830;DHT22;11077;50.264;6.798;2022-11-21T13:03:37;5.80;99.90
21830;DHT22;11077;50.264;6.798;2022-11-21T13:06:13;5.70;99.90
21830;DHT22;11077;50.264;6.798;2022-11-21T13:08:41;5.60;99.90
21830;DHT22;11077;50.264;6.798;2022-11-21T13:11:16;5.60;99.90
21830;DHT22;11077;50.264;6.798;2022-11-21T13:14:08;5.60;99.90
21830;DHT22;11077;50.264;6.798;2022-11-21T13:16:40;5.70;99.90
21830;DHT22;11077;50.264;6.798;2022-11-21T13:19:17;5.60;99.90
21830;DHT22;11077;50.264;6.798;2022-11-21T13:21:48;5.60;99.90
21830;DHT22;11077;50.264;6.798;2022-11-21T13:24:54;5.60;99.90
21830;DHT22;11077;50.264;6.798;2022-11-21T13:27:26;5.50;99.90
21830;DHT22;11077;50.264;6.798;2022-11-21T13:30:17;5.60;99.90
21830;DHT22;11077;50.264;6.798;2022-11-21T13:32:45;5.50;99.90
21830;DHT22;11077;50.264;6.798;2022-11-21T13:38:31;5.50;99.90
21830;DHT22;11077;50.264;6.798;2022-11-21T13:40:58;5.50;99.90
21830;DHT22;11077;50.264;6.798;2022-11-21T13:43:43;5.40;99.90
21830;DHT22;11077;50.264;6.798;2022-11-21T13:49:20;5.50;99.90
21830;DHT22;11077;50.264;6.798;2022-11-21T13:51:52;5.60;99.90
21830;DHT22;11077;50.264;6.798;2022-11-21T13:57:28;5.60;99.90
21830;DHT22;11077;50.264;6.798;2022-11-21T14:00:12;5.50;99.90
21830;DHT22;11077;50.264;6.798;2022-11-21T14:02:57;5.50;99.90
21830;DHT22;11077;50.264;6.798;2022-11-21T14:05:51;5.50;99.90
21830;DHT22;11077;50.264;6.798;2022-11-21T14:08:25;5.50;99.90
21830;DHT22;11077;50.264;6.798;2022-11-21T14:10:56;5.40;99.90
21830;DHT22;11077;50.264;6.798;2022-11-21T14:13:27;5.40;99.90
21830;DHT22;11077;50.264;6.798;2022-11-21T14:16:20;5.40;99.90
21830;DHT22;11077;50.264;6.798;2022-11-21T14:18:50;5.50;99.90
21830;DHT22;11077;50.264;6.798;2022-11-21T14:21:20;5.50;99.90
21830;DHT22;11077;50.264;6.798;2022-11-21T14:23:52;5.50;99.90
21830;DHT22;11077;50.264;6.798;2022-11-21T14:26:21;5.50;99.90
21830;DHT22;11077;50.264;6.798;2022-11-21T14:28:50;5.50;99.90
21830;DHT22;11077;50.264;6.798;2022-11-21T14:31:18;5.50;99.90
21830;DHT22;11077;50.264;6.798;2022-11-21T14:33:46;5.40;99.90
21830;DHT22;11077;50.264;6.798;2022-11-21T14:36:15;5.40;99.90
21830;DHT22;11077;50.264;6.798;2022-11-21T14:38:44;5.30;99.90
21830;DHT22;11077;50.264;6.798;2022-11-21T14:41:26;5.30;99.90
21830;DHT22;11077;50.264;6.798;2022-11-21T14:44:14;5.40;99.90
21830;DHT22;11077;50.264;6.798;2022-11-21T14:46:42;5.30;99.90
21830;DHT22;11077;50.264;6.798;2022-11-21T14:49:22;5.30;99.90
21830;DHT22;11077;50.264;6.798;2022-11-21T14:51:52;5.30;99.90
21830;DHT22;11077;50.264;6.798;2022-11-21T14:54:25;5.30;99.90
21830;DHT22;11077;50.264;6.798;2022-11-21T14:56:57;5.30;99.90
21830;DHT22;11077;50.264;6.798;2022-11-21T14:59:29;5.30;99.90
21830;DHT22;11077;50.264;6.798;2022-11-21T15:02:02;5.30;99.90
21830;DHT22;11077;50.264;6.798;2022-11-21T15:04:32;5.20;99.90
21830;DHT22;11077;50.264;6.798;2022-11-21T15:07:00;5.20;99.90
21830;DHT22;11077;50.264;6.798;2022-11-21T15:09:27;5.30;99.90
21830;DHT22;11077;50.264;6.798;2022-11-21T15:12:00;5.30;99.90
21830;DHT22;11077;50.264;6.798;2022-11-21T15:14:33;5.20;99.90
21830;DHT22;11077;50.264;6.798;2022-11-21T15:17:04;5.30;99.90
21830;DHT22;11077;50.264;6.798;2022-11-21T15:19:34;5.20;99.90
21830;DHT22;11077;50.264;6.798;2022-11-21T15:22:02;5.20;99.90
21830;DHT22;11077;50.264;6.798;2022-11-21T15:24:37;5.30;99.90
21830;DHT22;11077;50.264;6.798;2022-11-21T15:27:27;5.30;99.90
21830;DHT22;11077;50.264;6.798;2022-11-21T15:30:23;5.30;99.90
21830;DHT22;11077;50.264;6.798;2022-11-21T15:33:05;5.30;99.90
21830;DHT22;11077;50.264;6.798;2022-11-21T15:35:47;5.20;99.90
21830;DHT22;11077;50.264;6.798;2022-11-21T15:38:16;5.30;99.90
21830;DHT22;11077;50.264;6.798;2022-11-21T15:41:04;5.30;99.90
21830;DHT22;11077;50.264;6.798;2022-11-21T15:43:36;5.20;99.90
21830;DHT22;11077;50.264;6.798;2022-11-21T15:46:13;5.10;99.90
21830;DHT22;11077;50.264;6.798;2022-11-21T15:48:40;5.10;99.90
21830;DHT22;11077;50.264;6.798;2022-11-21T15:51:08;5.10;99.90
21830;DHT22;11077;50.264;6.798;2022-11-21T15:53:37;5.10;99.90
21830;DHT22;11077;50.264;6.798;2022-11-21T15:56:05;5.10;99.90
21830;DHT22;11077;50.264;6.798;2022-11-21T15:58:34;5.10;99.90
21830;DHT22;11077;50.264;6.798;2022-11-21T16:01:01;5.10;99.90
21830;DHT22;11077;50.264;6.798;2022-11-21T16:03:28;5.10;99.90
21830;DHT22;11077;50.264;6.798;2022-11-21T16:05:55;5.10;99.90
21830;DHT22;11077;50.264;6.798;2022-11-21T16:08:23;5.10;99.90
21830;DHT22;11077;50.264;6.798;2022-11-21T16:10:50;5.10;99.90
21830;DHT22;11077;50.264;6.798;2022-11-21T16:13:17;5.00;99.90
21830;DHT22;11077;50.264;6.798;2022-11-21T16:15:46;5.00;99.90
21830;DHT22;11077;50.264;6.798;2022-11-21T16:18:13;4.90;99.90
21830;DHT22;11077;50.264;6.798;2022-11-21T16:20:40;4.90;99.90
21830;DHT22;11077;50.264;6.798;2022-11-21T16:23:09;4.90;99.90
21830;DHT22;11077;50.264;6.798;2022-11-21T16:25:36;4.80;99.90
21830;DHT22;11077;50.264;6.798;2022-11-21T16:28:03;4.80;99.90
21830;DHT22;11077;50.264;6.798;2022-11-21T16:30:31;4.80;99.90
21830;DHT22;11077;50.264;6.798;2022-11-21T16:33:02;4.80;99.90